Weather observations for the past three days for
Elbert Mountain - Monument Pass
Imperial (Metric)
Date Time (mdt) Wind (mph) Vis. (mi.) Weather Sky Cond. Temperature (ºF) Relative Humidity Wind Chill (°F) Heat Index (°F) Pressure Precipitation (in)
Air Dwpt 6 hour altimeter (in) sea level (mb) 1 hr 3 hr 6 hr
Max. Min.
03 00:55 SW 8 10.00 Fair CLR 53.6 44.6 72% 30.19 0.0
03 00:35 W 5 10.00 Fair CLR 55.4 44.6 67% 30.19 0.0
03 00:15 W 8 10.00 Fair CLR 53.6 44.6 72% 30.19 0.0
02 23:55 W 7 10.00 Fair CLR 55.4 44.6 67% 30.19 0.0
02 23:35 W 3 10.00 Fair CLR 55.4 44.6 67% 30.19 0.0
02 23:15 NW 7 10.00 Fair CLR 57.2 44.6 63% 30.19 0.0
02 22:55 NW 6 10.00 Partly Cloudy SCT120 57.2 44.6 63% 30.2 0.0
02 22:35 NW 8 10.00 Partly Cloudy SCT120 60.8 44.6 55% 30.2 0.0
02 22:15 W 6 10.00 Fair CLR 60.8 44.6 55% 30.2 0.0
02 21:55 W 6 10.00 Fair CLR 62.6 42.8 49% 30.19 0.0
02 21:35 NW 5 G 21 10.00 Partly Cloudy SCT110 66.2 42.8 43% 30.2 0.0
02 21:15 NW 10 G 18 10.00 Mostly Cloudy SCT090 BKN110 66.2 44.6 46% 30.19 0.0
02 20:55 W 9 10.00 Light Rain SCT080 BKN110 68 44.6 43% 30.18 0.0
02 20:35 W 8 10.00 Partly Cloudy SCT120 69.8 37.4 31% 30.16 0.0
02 20:15 W 7 10.00 Partly Cloudy SCT120 68 37.4 33% 30.15 0.0
02 19:55 S 9 10.00 Partly Cloudy SCT120 69.8 37.4 31% 30.13 0.0
02 19:35 S 8 10.00 Partly Cloudy SCT120 69.8 37.4 31% 30.13 0.0
02 19:15 S 9 10.00 Fair CLR 69.8 37.4 31% 30.13 0.0
02 18:55 S 8 10.00 Fair CLR 71.6 39.2 31% 30.13 0.0
02 18:35 S 7 10.00 Fair CLR 71.6 39.2 31% 30.13 0.0
02 18:15 S 9 10.00 Fair CLR 75.2 37.4 25% 77 30.13 0.0
02 17:55 S 12 10.00 Fair CLR 78.8 35.6 21% 78 30.13 0.0
02 17:35 S 10 10.00 Fair CLR 78.8 37.4 23% 78 30.13 0.0
02 17:15 S 10 10.00 Partly Cloudy SCT110 80.6 35.6 20% 79 30.13 0.0
02 16:55 S 13 G 17 10.00 Partly Cloudy SCT110 82.4 37.4 20% 80 30.14 0.0
02 16:35 S 10 10.00 Partly Cloudy SCT120 82.4 35.6 19% 80 30.14 0.0
02 16:15 SW 6 10.00 Partly Cloudy SCT110 80.6 35.6 20% 79 30.15 0.0
02 15:55 E 9 10.00 Mostly Cloudy BKN110 80.6 39.2 23% 79 30.16 0.0
02 15:35 E 16 10.00 Partly Cloudy SCT120 80.6 39.2 23% 79 30.16 0.0
02 15:15 E 14 G 17 10.00 Mostly Cloudy BKN110 78.8 39.2 24% 78 30.17 0.0
02 14:55 SE 15 G 20 10.00 Mostly Cloudy BKN110 78.8 41 26% 78 30.18 0.0
02 14:35 SE 13 G 21 10.00 Overcast OVC110 80.6 41 24% 79 30.19 0.0
02 14:15 E 12 G 16 10.00 Mostly Cloudy BKN120 77 41 28% 78 30.19 0.0
02 13:55 E 7 G 16 10.00 Partly Cloudy SCT100 78.8 41 26% 78 30.21 0.0
02 13:35 S 12 G 17 10.00 Mostly Cloudy BKN100 78.8 37.4 23% 78 30.21 0.0
02 13:15 SW 10 G 16 10.00 Mostly Cloudy BKN090 78.8 37.4 23% 78 30.22 0.0
02 12:55 SW 5 10.00 Mostly Cloudy BKN090 78.8 37.4 23% 78 30.23 0.0
02 12:35 W 6 10.00 Partly Cloudy SCT090 78.8 37.4 23% 78 30.24 0.0
02 12:15 W 7 10.00 Fair CLR 78.8 37.4 23% 78 30.25 0.0
02 11:55 S 6 10.00 Fair CLR 77 37.4 24% 77 30.25 0.0
02 11:35 SE 5 10.00 Fair CLR 77 37.4 24% 77 30.26 0.0
02 11:15 NE 5 10.00 Fair CLR 75.2 35.6 24% 76 30.26 0.0
02 10:55 E 5 10.00 Fair CLR 75.2 37.4 25% 77 30.27 0.0
02 10:35 Calm 10.00 Fair CLR 73.4 35.6 25% 30.27 0.0
02 10:15 Calm 10.00 Fair CLR 73.4 37.4 27% 30.27 0.0
02 09:55 W 3 10.00 Fair CLR 71.6 37.4 29% 30.27 0.0
02 09:35 Calm 10.00 Fair CLR 71.6 35.6 27% 30.27 0.0
02 09:15 Calm 10.00 Fair CLR 69.8 39.2 33% 30.27 0.0
02 08:55 Calm 10.00 Fair CLR 69.8 41 35% 30.27 0.0
02 08:35 Calm 10.00 Fair CLR 68 41 38% 30.27 0.0
02 08:15 Calm 10.00 Fair CLR 68 41 38% 30.26 0.0
02 07:55 Calm 10.00 Fair CLR 64.4 42.8 46% 30.26 0.0
02 07:35 SW 6 10.00 Fair CLR 60.8 42.8 52% 30.26 0.0
02 07:15 W 6 10.00 Fair CLR 59 41 51% 30.25 0.0
02 06:55 SW 8 10.00 Fair CLR 55.4 39.2 55% 30.25 0.0
02 06:35 SW 3 7.00 Fair CLR 50 41 71% 30.24 0.0
02 06:15 SW 5 10.00 Fair CLR 53.6 41 63% 30.24 0.0
02 05:55 SW 5 10.00 Fair CLR 59 41 51% 30.23 0.0
02 05:35 SW 7 10.00 Fair CLR 57.2 41 55% 30.23 0.0
02 05:15 SW 6 10.00 Fair CLR 55.4 42.8 63% 30.23 0.0
02 04:55 SW 6 10.00 Fair CLR 55.4 42.8 63% 30.22 0.0
02 04:35 SW 8 10.00 Fair CLR 53.6 44.6 72% 30.22 0.0
02 04:15 SW 7 10.00 Fair CLR 55.4 44.6 67% 30.22 0.0
02 03:55 SW 7 10.00 Fair CLR 59 44.6 59% 30.22 0.0
02 03:35 SW 9 10.00 Fair CLR 57.2 46.4 67% 30.22 0.0
02 03:15 SW 7 10.00 Fair CLR 53.6 48.2 82% 30.22 0.0
02 02:55 SW 8 10.00 Fair CLR 55.4 48.2 77% 30.22 0.0
02 02:35 SW 8 10.00 Fair CLR 55.4 48.2 77% 30.22 0.0
02 02:15 SW 8 10.00 Fair CLR 59 50 72% 30.23 0.0
02 01:55 SW 6 10.00 Fair CLR 57.2 50 77% 30.24 0.0
02 01:35 SW 8 10.00 Fair CLR 60.8 50 68% 30.24 0.0
02 01:15 SW 6 10.00 Fair CLR 59 50 72% 30.24 0.0
02 00:55 SW 7 10.00 Fair CLR 59 50 72% 30.24 0.0
02 00:35 S 6 10.00 Fair CLR 57.2 50 77% 30.23 0.0
02 00:15 SW 6 10.00 Fair CLR 57.2 50 77% 30.23 0.0
01 23:55 S 10 10.00 Fair CLR 60.8 50 68% 30.23 0.0
01 23:35 S 9 10.00 Fair CLR 60.8 50 68% 30.24 0.0
01 23:15 S 8 10.00 Fair CLR 62.6 50 64% 30.24 0.0
01 22:55 S 15 10.00 Fair CLR 62.6 51.8 68% 30.23 0.0
01 22:35 S 16 10.00 Partly Cloudy SCT120 62.6 50 64% 30.24 0.0
01 22:15 S 12 10.00 Partly Cloudy SCT120 62.6 50 64% 30.25 0.0
01 21:55 S 12 10.00 Fair CLR 62.6 46.4 56% 30.25 0.0
01 21:35 S 12 G 16 10.00 Fair CLR 62.6 46.4 56% 30.24 0.0
01 21:15 S 14 10.00 Fair CLR 64.4 46.4 52% 30.24 0.0
01 20:55 S 12 G 18 10.00 Fair CLR 64.4 48.2 56% 30.24 0.0
01 20:35 S 9 10.00 Fair CLR 64.4 50 60% 30.22 0.0
01 20:15 S 8 10.00 Fair CLR 66.2 50 56% 30.21 0.0
01 19:55 Calm 10.00 Fair CLR 64.4 46.4 52% 30.21 0.0
01 19:35 S 6 10.00 Partly Cloudy SCT110 68 46.4 46% 30.2 0.0
01 19:15 S 6 10.00 Mostly Cloudy BKN110 71.6 46.4 41% 30.2 0.0
01 18:55 S 12 G 16 10.00 Overcast OVC110 71.6 44.6 38% 30.2 0.0
01 18:35 S 9 10.00 Overcast OVC110 73.4 44.6 36% 30.19 0.0
01 18:15 SE 7 10.00 Mostly Cloudy BKN110 73.4 42.8 33% 30.19 0.0
01 17:55 SE 5 10.00 Mostly Cloudy BKN110 78.8 37.4 23% 78 30.19 0.0
01 17:35 S 7 10.00 Partly Cloudy SCT110 77 39.2 26% 77 30.19 0.0
01 17:15 Calm 10.00 Fair CLR 78.8 37.4 23% 78 30.19 0.0
01 16:55 S 6 10.00 Partly Cloudy SCT100 SCT120 78.8 35.6 21% 78 30.2 0.0
01 16:35 SE 5 10.00 Mostly Cloudy BKN100 BKN120 77 41 28% 78 30.21 0.0
01 15:55 SW 7 10.00 Partly Cloudy SCT100 78.8 37.4 23% 78 30.21 0.0
01 15:35 S 5 10.00 Partly Cloudy SCT100 78.8 41 26% 78 30.22 0.0
01 15:15 Calm 10.00 Partly Cloudy SCT100 75.2 37.4 25% 77 30.22 0.0
01 14:55 Calm 10.00 Partly Cloudy SCT100 75.2 37.4 25% 77 30.24 0.0
01 14:35 Calm 10.00 Partly Cloudy SCT090 77 39.2 26% 77 30.24 0.0
01 14:15 W 5 10.00 Partly Cloudy SCT090 78.8 41 26% 78 30.25 0.0
01 13:55 Calm 10.00 Partly Cloudy SCT090 77 41 28% 78 30.25 0.0
01 13:35 NW 6 10.00 Partly Cloudy SCT080 73.4 41 31% 30.25 0.0
01 13:15 W 5 10.00 Partly Cloudy SCT080 77 41 28% 78 30.26 0.0
01 12:55 SW 9 10.00 Fair CLR 77 41 28% 78 30.26 0.0
01 12:35 NW 3 10.00 Fair CLR 77 41 28% 78 30.27 0.0
01 12:15 S 7 10.00 Fair CLR 73.4 42.8 33% 30.28 0.0
01 11:55 SW 8 10.00 Fair CLR 73.4 42.8 33% 30.29 0.0
01 11:35 SW 9 10.00 Fair CLR 73.4 44.6 36% 30.29 0.0
01 11:15 SW 15 10.00 Fair CLR 69.8 44.6 40% 30.3 0.0
01 10:55 SW 13 G 17 10.00 Fair CLR 68 46.4 46% 30.31 0.0
01 10:35 SW 12 10.00 Fair CLR 66.2 46.4 49% 30.3 0.0
01 10:15 SW 13 10.00 Fair CLR 64.4 46.4 52% 30.3 0.0
01 09:55 SW 15 10.00 Partly Cloudy SCT120 62.6 46.4 56% 30.3 0.0
01 09:35 SW 15 10.00 Partly Cloudy SCT120 62.6 46.4 56% 30.3 0.0
01 09:15 SW 13 10.00 Fair CLR 62.6 46.4 56% 30.29 0.0
01 08:55 SW 16 G 23 10.00 Fair CLR 62.6 46.4 56% 30.29 0.0
01 08:35 SW 15 10.00 Partly Cloudy SCT120 62.6 46.4 56% 30.28 0.0
01 08:15 SW 10 10.00 Partly Cloudy SCT120 60.8 48.2 63% 30.28 0.0
01 07:55 SW 9 10.00 Partly Cloudy SCT120 59 50 72% 30.27 0.0
01 07:35 SW 7 10.00 Partly Cloudy SCT120 59 50 72% 30.27 0.0
01 07:15 SW 9 10.00 Partly Cloudy SCT120 59 50 72% 30.26 0.0
01 06:55 SW 9 10.00 Partly Cloudy SCT120 57.2 51.8 82% 30.25 0.0
01 06:35 SW 10 10.00 Fair CLR 57.2 51.8 82% 30.25 0.0
01 06:15 SW 9 10.00 Fair CLR 55.4 51.8 88% 30.24 0.0
01 05:55 SW 6 10.00 Partly Cloudy SCT110 55.4 50 82% 30.24 0.0
01 05:35 SW 7 10.00 Fair CLR 55.4 51.8 88% 30.25 0.0
01 05:15 S 7 10.00 Partly Cloudy SCT120 55.4 51.8 88% 30.25 0.0
01 04:55 S 5 10.00 Mostly Cloudy BKN120 55.4 51.8 88% 30.25 0.0
01 04:35 S 6 10.00 Overcast OVC110 55.4 51.8 88% 30.26 0.0
01 04:15 S 6 10.00 Mostly Cloudy BKN110 55.4 50 82% 30.26 0.0
01 03:55 S 6 10.00 Mostly Cloudy BKN120 57.2 50 77% 30.26 0.0
01 03:35 S 8 10.00 Partly Cloudy SCT120 55.4 50 82% 30.28 0.0
01 03:15 S 7 10.00 Mostly Cloudy BKN120 57.2 50 77% 30.27 0.0
01 02:55 S 6 10.00 Overcast OVC120 55.4 50 82% 30.28 0.0
01 02:35 S 3 10.00 Overcast SCT100 OVC120 57.2 50 77% 30.28 0.0
01 02:15 S 3 10.00 Overcast SCT100 OVC120 57.2 50 77% 30.3 0.0
01 01:55 SW 3 10.00 Overcast SCT100 OVC120 57.2 50 77% 30.3 0.0
01 01:35 Calm 10.00 Overcast OVC110 55.4 50 82% 30.3 0.0
01 01:15 Calm 10.00 Overcast OVC110 57.2 50 77% 30.3 0.0
01 00:55 Calm 10.00 Partly Cloudy SCT100 55.4 50 82% 30.3 0.0
01 00:35 Calm 10.00 Fair CLR 55.4 48.2 77% 30.29 0.0
01 00:15 SE 5 10.00 Fair CLR 57.2 50 77% 30.29 0.0
31 23:55 Calm 10.00 Fair CLR 59 48.2 68% 30.3 0.0
31 23:35 Calm 10.00 Fair CLR 59 48.2 68% 30.3 0.0
31 23:15 Calm 10.00 Fair CLR 57.2 50 77% 30.31 0.0
31 22:55 SE 3 10.00 Fair CLR 57.2 50 77% 30.31 0.0
31 22:35 SE 8 10.00 Fair CLR 55.4 50 82% 30.31 0.0
31 22:15 Calm 10.00 Partly Cloudy SCT110 55.4 50 82% 30.31 0.0
31 21:55 W 3 10.00 Partly Cloudy SCT110 59 50 72% 30.32 0.0
31 21:35 W 5 10.00 Mostly Cloudy SCT090 BKN110 59 50 72% 30.32 0.0
31 21:15 W 6 10.00 Overcast BKN100 OVC110 60.8 50 68% 30.32 0.0
31 20:55 W 7 10.00 Overcast OVC090 60.8 50 68% 30.31 0.0
31 20:35 W 14 G 22 10.00 Overcast OVC090 62.6 50 64% 30.31 0.0
31 19:55 Calm 10.00 Mostly Cloudy BKN110 64.4 46.4 52% 30.26 0.0
31 19:35 S 8 10.00 Fair CLR 66.2 46.4 49% 30.25 0.0
31 19:15 SE 8 10.00 Fair CLR 68 46.4 46% 30.24 0.0
31 18:55 SE 10 10.00 Fair CLR 68 46.4 46% 30.24 0.0
31 18:35 SE 13 G 18 10.00 Partly Cloudy SCT085 69.8 46.4 43% 30.25 0.0
31 18:15 SE 9 10.00 Partly Cloudy SCT080 SCT085 73.4 46.4 38% 30.25 0.0
31 17:35 E 12 G 16 10.00 Fair CLR 75.2 46.4 36% 77 30.25 0.0
31 17:15 E 6 10.00 Partly Cloudy SCT080 73.4 44.6 36% 30.26 0.0
31 16:55 E 6 10.00 Fair CLR 75.2 44.6 34% 77 30.26 0.0
31 16:35 E 5 10.00 Fair CLR 73.4 42.8 33% 30.27 0.0
31 16:15 SE 8 10.00 Fair CLR 77 42.8 30% 78 30.28 0.0
31 15:55 E 6 10.00 Partly Cloudy SCT085 77 42.8 30% 78 30.28 0.0
31 15:35 E 8 10.00 Mostly Cloudy BKN085 75.2 42.8 31% 77 30.28 0.0
31 15:15 E 5 10.00 Overcast OVC095 75.2 42.8 31% 77 30.3 0.0
31 14:55 E 8 10.00 Overcast OVC095 73.4 42.8 33% 30.3 0.0
31 14:35 E 7 10.00 Overcast OVC095 73.4 42.8 33% 30.3 0.0
31 14:15 Calm 10.00 Overcast SCT060 SCT075 OVC095 73.4 41 31% 30.31 0.0
31 13:55 NW 5 10.00 Overcast SCT037 BKN065 OVC075 73.4 42.8 33% 30.32 0.0
31 13:35 Calm 10.00 Overcast SCT044 SCT075 OVC090 73.4 41 31% 30.32 0.0
31 13:15 E 6 10.00 Mostly Cloudy BKN100 75.2 42.8 31% 77 30.32 0.0
31 12:55 N 5 10.00 Partly Cloudy SCT100 SCT110 75.2 41 29% 77 30.33 0.0
31 12:35 N 5 10.00 Partly Cloudy SCT100 SCT120 73.4 42.8 33% 30.33 0.0
31 12:15 E 5 10.00 Overcast BKN100 OVC120 73.4 41 31% 30.33 0.0
31 11:55 NE 3 10.00 Mostly Cloudy BKN110 73.4 41 31% 30.34 0.0
31 11:35 Calm 10.00 Partly Cloudy SCT120 73.4 42.8 33% 30.34 0.0
31 11:15 Calm 10.00 Fair CLR 71.6 42.8 36% 30.34 0.0
31 10:55 Calm 10.00 Fair CLR 71.6 42.8 36% 30.34 0.0
31 10:35 Calm 10.00 Fair CLR 71.6 42.8 36% 30.34 0.0
31 10:15 NW 3 10.00 Fair CLR 71.6 44.6 38% 30.34 0.0
31 09:55 Calm 10.00 Fair CLR 71.6 44.6 38% 30.33 0.0
31 09:35 SW 3 10.00 Fair CLR 68 46.4 46% 30.33 0.0
31 09:15 SW 6 10.00 Fair CLR 64.4 46.4 52% 30.33 0.0
31 08:55 S 5 10.00 Fair CLR 64.4 48.2 56% 30.32 0.0
31 08:35 S 5 10.00 Fair CLR 62.6 48.2 60% 30.32 0.0
31 08:15 SW 7 10.00 Fair CLR 64.4 44.6 49% 30.32 0.0
31 07:55 SW 9 10.00 Fair CLR 62.6 44.6 52% 30.32 0.0
31 07:35 S 9 10.00 Fair CLR 60.8 44.6 55% 30.31 0.0
31 07:15 S 5 10.00 Fair CLR 60.8 42.8 52% 30.3 0.0
31 06:55 SW 8 10.00 Fair CLR 55.4 42.8 63% 30.29 0.0
31 06:35 W 6 10.00 Fair CLR 55.4 42.8 63% 30.29 0.0
31 06:15 W 3 10.00 Fair CLR 55.4 42.8 63% 30.28 0.0
31 05:55 SW 6 10.00 Fair CLR 59 42.8 55% 30.28 0.0
31 05:35 SW 10 10.00 Fair CLR 59 42.8 55% 30.28 0.0
31 05:15 SW 9 10.00 Fair CLR 60.8 42.8 52% 30.27 0.0
31 04:55 SW 12 10.00 Fair CLR 55.4 44.6 67% 30.27 0.0
31 04:35 S 8 10.00 Fair CLR 57.2 44.6 63% 30.27 0.0
31 04:15 SW 7 10.00 Fair CLR 57.2 44.6 63% 30.27 0.0
31 03:55 W 9 10.00 Fair CLR 59 44.6 59% 30.27 0.0
31 03:35 W 8 10.00 Fair CLR 57.2 44.6 63% 30.26 0.0
31 03:15 S 5 10.00 Fair CLR 55.4 46.4 72% 30.27 0.0
31 02:55 Calm 10.00 Fair CLR 53.6 46.4 77% 30.27 0.0
31 02:35 Calm 10.00 Fair CLR 53.6 46.4 77% 30.27 0.0
31 02:15 SE 7 10.00 Fair CLR 53.6 46.4 77% 30.28 0.0
31 01:55 SW 5 10.00 Fair CLR 53.6 46.4 77% 30.28 0.0
31 01:35 SW 8 10.00 Fair CLR 55.4 46.4 72% 30.29 0.0
31 01:15 SW 12 10.00 Fair CLR 55.4 48.2 77% 30.28 0.0
Date Time (mdt) Wind (mph) Vis. (mi.) Weather Sky Cond. Air Dwpt Max. Min. Relative Humidity Wind Chill (°F) Heat Index (°F) altimeter (in) sea level (mb) 1 hr 3 hr 6 hr
6 hour
Temperature (ºF) Pressure Precipitation (in)